Wilton, Minnesota
Current Conditions -  °F | °C
As of 4:33 PM on Saturday 25 Oct 2014 (Local Time) from KBJI Reporting Station
Clear Clear  
Wind Chill: 55°   Ceiling: Unl
Heat Index: 55°   Visibility: 10mi
Dew Point: 25°   Wind: 23mph
Humidity: 32%   Direction: 300°WNW
Pressure: 30.02"   Gusts: 26mph
Location:  47.5°N, 95°W
Report Text: KBJI 252133Z AUTO 30020G23KT 10SM CLR 13/M04 A3002 RMK AO2 T01261039
Loading
Personal Weather Stations






























Interactive Weather Map
Tropical Storm Tracking
New forecast layout! Learn more

10-Day Weather Forecast

Advertisements
Track Severe Weather on mobile